sensor_id;sensor_type;location;lat;lon;timestamp;pressure;altitude;pressure_sealevel;temperature;humidity
41044;BME280;51680;49.806;18.774;2023-04-04T00:00:51;97973.91;;;2.32;61.21
41044;BME280;51680;49.806;18.774;2023-04-04T00:03:53;97973.13;;;2.29;61.52
41044;BME280;51680;49.806;18.774;2023-04-04T00:06:56;97977.38;;;2.31;61.58
41044;BME280;51680;49.806;18.774;2023-04-04T00:09:58;97971.44;;;2.28;61.84
41044;BME280;51680;49.806;18.774;2023-04-04T00:13:00;97970.56;;;2.29;61.56
41044;BME280;51680;49.806;18.774;2023-04-04T00:16:03;97968.91;;;2.25;61.90
41044;BME280;51680;49.806;18.774;2023-04-04T00:19:05;97963.84;;;2.20;62.22
41044;BME280;51680;49.806;18.774;2023-04-04T00:22:08;97965.69;;;2.15;62.77
41044;BME280;51680;49.806;18.774;2023-04-04T00:25:10;97961.38;;;2.17;62.17
41044;BME280;51680;49.806;18.774;2023-04-04T00:28:11;97966.56;;;2.14;62.43
41044;BME280;51680;49.806;18.774;2023-04-04T00:31:13;97963.34;;;2.06;62.83
41044;BME280;51680;49.806;18.774;2023-04-04T00:34:15;97964.94;;;2.10;62.63
41044;BME280;51680;49.806;18.774;2023-04-04T00:37:18;97965.78;;;2.12;62.58
41044;BME280;51680;49.806;18.774;2023-04-04T00:40:20;97965.16;;;2.01;63.15
41044;BME280;51680;49.806;18.774;2023-04-04T00:43:23;97965.06;;;2.04;63.01
41044;BME280;51680;49.806;18.774;2023-04-04T00:46:27;97966.91;;;1.99;63.29
41044;BME280;51680;49.806;18.774;2023-04-04T00:49:29;97966.97;;;1.96;63.54
41044;BME280;51680;49.806;18.774;2023-04-04T00:52:33;97976.41;;;1.97;63.49
41044;BME280;51680;49.806;18.774;2023-04-04T00:55:35;97973.94;;;1.91;66.68
41044;BME280;51680;49.806;18.774;2023-04-04T00:58:38;97975.66;;;1.92;63.57
41044;BME280;51680;49.806;18.774;2023-04-04T01:01:40;97978.09;;;1.98;63.30
41044;BME280;51680;49.806;18.774;2023-04-04T01:04:43;97975.50;;;1.98;63.59
41044;BME280;51680;49.806;18.774;2023-04-04T01:07:46;97969.47;;;1.99;63.37
41044;BME280;51680;49.806;18.774;2023-04-04T01:10:48;97973.88;;;1.94;64.27
41044;BME280;51680;49.806;18.774;2023-04-04T01:13:51;97978.97;;;1.97;63.86
41044;BME280;51680;49.806;18.774;2023-04-04T01:16:52;97969.44;;;2.01;63.82
41044;BME280;51680;49.806;18.774;2023-04-04T01:20:02;97972.94;;;1.98;64.31
41044;BME280;51680;49.806;18.774;2023-04-04T01:23:15;97971.28;;;1.96;64.29
41044;BME280;51680;49.806;18.774;2023-04-04T01:26:21;97970.44;;;1.94;64.38
41044;BME280;51680;49.806;18.774;2023-04-04T01:29:24;97965.28;;;1.95;64.15
41044;BME280;51680;49.806;18.774;2023-04-04T01:32:32;97976.44;;;1.94;64.94
41044;BME280;51680;49.806;18.774;2023-04-04T01:35:42;97978.22;;;1.92;64.67
41044;BME280;51680;49.806;18.774;2023-04-04T01:38:48;97972.22;;;1.92;64.89
41044;BME280;51680;49.806;18.774;2023-04-04T01:42:13;97978.41;;;1.83;64.75
41044;BME280;51680;49.806;18.774;2023-04-04T01:45:20;97973.19;;;1.86;64.47
41044;BME280;51680;49.806;18.774;2023-04-04T01:48:24;97979.28;;;1.82;64.65
41044;BME280;51680;49.806;18.774;2023-04-04T01:51:29;97972.56;;;1.75;65.05
41044;BME280;51680;49.806;18.774;2023-04-04T01:54:32;97984.78;;;1.64;65.36
41044;BME280;51680;49.806;18.774;2023-04-04T01:57:37;97987.41;;;1.61;65.47
41044;BME280;51680;49.806;18.774;2023-04-04T02:00:40;97979.81;;;1.57;65.69
41044;BME280;51680;49.806;18.774;2023-04-04T02:03:41;97987.41;;;1.61;65.39
41044;BME280;51680;49.806;18.774;2023-04-04T02:06:43;97993.41;;;1.63;65.34
41044;BME280;51680;49.806;18.774;2023-04-04T02:09:45;97993.34;;;1.65;65.15
41044;BME280;51680;49.806;18.774;2023-04-04T02:12:51;97993.44;;;1.60;65.83
41044;BME280;51680;49.806;18.774;2023-04-04T02:15:55;97991.81;;;1.56;65.73
41044;BME280;51680;49.806;18.774;2023-04-04T02:18:57;97982.34;;;1.58;65.82
41044;BME280;51680;49.806;18.774;2023-04-04T02:21:59;97986.59;;;1.59;65.76
41044;BME280;51680;49.806;18.774;2023-04-04T02:25:01;97988.34;;;1.57;65.77
41044;BME280;51680;49.806;18.774;2023-04-04T02:28:04;97986.66;;;1.56;65.90
41044;BME280;51680;49.806;18.774;2023-04-04T02:31:06;97983.28;;;1.54;65.80
41044;BME280;51680;49.806;18.774;2023-04-04T02:34:08;97988.44;;;1.54;65.78
41044;BME280;51680;49.806;18.774;2023-04-04T02:37:10;97990.25;;;1.49;66.17
41044;BME280;51680;49.806;18.774;2023-04-04T02:40:12;97992.06;;;1.44;66.65
41044;BME280;51680;49.806;18.774;2023-04-04T02:43:15;97984.34;;;1.43;66.39
41044;BME280;51680;49.806;18.774;2023-04-04T02:46:19;97986.94;;;1.41;66.38
41044;BME280;51680;49.806;18.774;2023-04-04T02:49:22;97990.47;;;1.36;66.65
41044;BME280;51680;49.806;18.774;2023-04-04T02:52:24;97993.84;;;1.39;66.63
41044;BME280;51680;49.806;18.774;2023-04-04T02:55:27;97993.84;;;1.39;66.54
41044;BME280;51680;49.806;18.774;2023-04-04T02:58:32;97988.72;;;1.39;66.52
41044;BME280;51680;49.806;18.774;2023-04-04T03:01:34;97987.84;;;1.39;66.84
41044;BME280;51680;49.806;18.774;2023-04-04T03:04:37;97988.06;;;1.27;70.13
41044;BME280;51680;49.806;18.774;2023-04-04T03:07:39;97991.44;;;1.30;66.98
41044;BME280;51680;49.806;18.774;2023-04-04T03:10:43;97988.72;;;1.39;66.67
41044;BME280;51680;49.806;18.774;2023-04-04T03:13:47;97990.47;;;1.36;67.05
41044;BME280;51680;49.806;18.774;2023-04-04T03:16:52;97987.97;;;1.33;67.21
41044;BME280;51680;49.806;18.774;2023-04-04T03:19:54;97996.66;;;1.26;67.58
41044;BME280;51680;49.806;18.774;2023-04-04T03:22:56;97984.59;;;1.29;67.37
41044;BME280;51680;49.806;18.774;2023-04-04T03:25:58;97988.66;;;1.41;67.34
41044;BME280;51680;49.806;18.774;2023-04-04T03:29:01;97988.50;;;1.48;67.08
41044;BME280;51680;49.806;18.774;2023-04-04T03:32:04;97980.03;;;1.43;67.16
41044;BME280;51680;49.806;18.774;2023-04-04T03:35:07;97990.41;;;1.40;67.45
41044;BME280;51680;49.806;18.774;2023-04-04T03:38:09;97986.94;;;1.41;67.40
41044;BME280;51680;49.806;18.774;2023-04-04T03:41:12;97982.84;;;1.31;67.85
41044;BME280;51680;49.806;18.774;2023-04-04T03:44:15;97976.72;;;1.38;67.82
41044;BME280;51680;49.806;18.774;2023-04-04T03:47:17;97976.66;;;1.41;67.67
41044;BME280;51680;49.806;18.774;2023-04-04T03:50:18;97968.78;;;1.50;67.27
41044;BME280;51680;49.806;18.774;2023-04-04T03:53:25;97965.28;;;1.54;67.38
41044;BME280;51680;49.806;18.774;2023-04-04T03:56:29;97978.16;;;1.53;67.50
41044;BME280;51680;49.806;18.774;2023-04-04T03:59:32;97976.56;;;1.46;67.78
41044;BME280;51680;49.806;18.774;2023-04-04T04:02:34;97972.28;;;1.46;67.38
41044;BME280;51680;49.806;18.774;2023-04-04T04:05:36;97978.22;;;1.48;67.55
41044;BME280;51680;49.806;18.774;2023-04-04T04:08:38;97968.00;;;1.47;67.78
41044;BME280;51680;49.806;18.774;2023-04-04T04:11:40;97975.63;;;1.50;67.76
41044;BME280;51680;49.806;18.774;2023-04-04T04:14:44;97966.94;;;1.57;67.50
41044;BME280;51680;49.806;18.774;2023-04-04T04:17:46;97966.81;;;1.63;67.27
41044;BME280;51680;49.806;18.774;2023-04-04T04:20:48;97967.59;;;1.66;67.31
41044;BME280;51680;49.806;18.774;2023-04-04T04:23:50;97963.28;;;1.68;67.23
41044;BME280;51680;49.806;18.774;2023-04-04T04:26:52;97968.53;;;1.62;67.22
41044;BME280;51680;49.806;18.774;2023-04-04T04:29:55;97965.19;;;1.57;67.31
41044;BME280;51680;49.806;18.774;2023-04-04T04:32:57;97970.59;;;1.45;70.47
41044;BME280;51680;49.806;18.774;2023-04-04T04:36:07;97969.75;;;1.43;67.15
41044;BME280;51680;49.806;18.774;2023-04-04T04:39:21;97973.38;;;1.33;67.49
41044;BME280;51680;49.806;18.774;2023-04-04T04:42:42;97969.22;;;1.28;67.72
41044;BME280;51680;49.806;18.774;2023-04-04T04:45:47;97973.63;;;1.21;67.97
41044;BME280;51680;49.806;18.774;2023-04-04T04:48:50;97978.00;;;1.15;67.98
41044;BME280;51680;49.806;18.774;2023-04-04T04:51:57;97970.31;;;1.13;67.99
41044;BME280;51680;49.806;18.774;2023-04-04T04:54:59;97965.13;;;1.16;67.86
41044;BME280;51680;49.806;18.774;2023-04-04T04:58:02;97970.34;;;1.12;68.20
41044;BME280;51680;49.806;18.774;2023-04-04T05:01:07;97964.34;;;1.13;68.35
41044;BME280;51680;49.806;18.774;2023-04-04T05:04:12;97970.28;;;1.16;67.99
41044;BME280;51680;49.806;18.774;2023-04-04T05:07:28;97966.78;;;1.20;68.09
41044;BME280;51680;49.806;18.774;2023-04-04T05:10:30;97977.69;;;1.33;67.85
41044;BME280;51680;49.806;18.774;2023-04-04T05:13:33;97978.44;;;1.38;67.70
41044;BME280;51680;49.806;18.774;2023-04-04T05:16:38;97970.56;;;1.47;67.59
41044;BME280;51680;49.806;18.774;2023-04-04T05:19:40;97967.84;;;1.54;67.50
41044;BME280;51680;49.806;18.774;2023-04-04T05:22:45;97961.66;;;1.64;66.90
41044;BME280;51680;49.806;18.774;2023-04-04T05:25:52;97974.31;;;1.73;66.82
41044;BME280;51680;49.806;18.774;2023-04-04T05:28:55;97971.81;;;1.70;66.66
41044;BME280;51680;49.806;18.774;2023-04-04T05:32:02;97975.94;;;1.77;66.65
41044;BME280;51680;49.806;18.774;2023-04-04T05:35:06;97984.34;;;1.85;66.65
41044;BME280;51680;49.806;18.774;2023-04-04T05:38:09;97975.88;;;1.80;66.47
41044;BME280;51680;49.806;18.774;2023-04-04T05:41:13;97985.25;;;1.83;66.41
41044;BME280;51680;49.806;18.774;2023-04-04T05:44:16;97979.47;;;1.73;66.45
41044;BME280;51680;49.806;18.774;2023-04-04T05:47:19;97989.59;;;1.82;66.33
41044;BME280;51680;49.806;18.774;2023-04-04T05:50:23;97992.91;;;1.87;66.50
41044;BME280;51680;49.806;18.774;2023-04-04T05:53:25;97981.66;;;1.91;66.09
41044;BME280;51680;49.806;18.774;2023-04-04T05:56:27;97984.16;;;1.94;66.36
41044;BME280;51680;49.806;18.774;2023-04-04T05:59:31;97987.53;;;1.96;66.32
41044;BME280;51680;49.806;18.774;2023-04-04T06:02:38;97991.00;;;1.95;66.03
41044;BME280;51680;49.806;18.774;2023-04-04T06:05:43;97995.28;;;1.96;66.01
41044;BME280;51680;49.806;18.774;2023-04-04T06:08:46;97993.88;;;1.82;66.13
41044;BME280;51680;49.806;18.774;2023-04-04T06:11:47;97995.59;;;1.81;66.14
41044;BME280;51680;49.806;18.774;2023-04-04T06:14:50;97988.91;;;1.73;65.92
41044;BME280;51680;49.806;18.774;2023-04-04T06:17:56;97998.34;;;1.72;65.90
41044;BME280;51680;49.806;18.774;2023-04-04T06:20:58;98004.69;;;1.55;67.66
41044;BME280;51680;49.806;18.774;2023-04-04T06:24:01;98002.06;;;1.58;66.12
41044;BME280;51680;49.806;18.774;2023-04-04T06:27:03;97992.63;;;1.58;65.95
41044;BME280;51680;49.806;18.774;2023-04-04T06:30:08;98005.28;;;1.67;65.98
41044;BME280;51680;49.806;18.774;2023-04-04T06:33:12;97995.00;;;1.67;65.84
41044;BME280;51680;49.806;18.774;2023-04-04T06:36:18;98001.00;;;1.68;65.82
41044;BME280;51680;49.806;18.774;2023-04-04T06:39:21;98002.69;;;1.70;65.48
41044;BME280;51680;49.806;18.774;2023-04-04T06:42:25;98006.97;;;1.70;65.64
41044;BME280;51680;49.806;18.774;2023-04-04T06:45:27;98002.78;;;1.66;65.74
41044;BME280;51680;49.806;18.774;2023-04-04T06:48:34;98002.69;;;1.70;65.74
41044;BME280;51680;49.806;18.774;2023-04-04T06:51:36;97998.47;;;1.66;65.70
41044;BME280;51680;49.806;18.774;2023-04-04T06:54:37;98001.00;;;1.69;65.35
41044;BME280;51680;49.806;18.774;2023-04-04T06:57:40;97998.16;;;1.81;65.09
41044;BME280;51680;49.806;18.774;2023-04-04T07:00:42;97994.63;;;1.87;64.94
41044;BME280;51680;49.806;18.774;2023-04-04T07:03:45;98007.38;;;1.91;64.58
41044;BME280;51680;49.806;18.774;2023-04-04T07:06:47;97994.59;;;1.88;63.84
41044;BME280;51680;49.806;18.774;2023-04-04T07:09:48;97997.78;;;1.99;63.98
41044;BME280;51680;49.806;18.774;2023-04-04T07:12:51;97997.47;;;2.14;63.88
41044;BME280;51680;49.806;18.774;2023-04-04T07:15:52;97994.81;;;2.19;63.49
41044;BME280;51680;49.806;18.774;2023-04-04T07:18:56;97998.88;;;2.29;63.53
41044;BME280;51680;49.806;18.774;2023-04-04T07:21:57;98000.22;;;2.45;63.35
41044;BME280;51680;49.806;18.774;2023-04-04T07:24:59;97998.31;;;2.54;62.96
41044;BME280;51680;49.806;18.774;2023-04-04T07:28:01;97992.91;;;2.63;62.63
41044;BME280;51680;49.806;18.774;2023-04-04T07:31:04;97989.22;;;2.75;62.19
41044;BME280;51680;49.806;18.774;2023-04-04T07:34:07;97995.59;;;2.95;62.06
41044;BME280;51680;49.806;18.774;2023-04-04T07:37:09;98001.69;;;3.26;60.77
41044;BME280;51680;49.806;18.774;2023-04-04T07:40:12;97987.81;;;3.30;60.10
41044;BME280;51680;49.806;18.774;2023-04-04T07:43:14;97985.09;;;3.36;59.78
41044;BME280;51680;49.806;18.774;2023-04-04T07:46:16;97989.31;;;3.39;59.19
41044;BME280;51680;49.806;18.774;2023-04-04T07:49:20;98002.09;;;3.43;59.15
41044;BME280;51680;49.806;18.774;2023-04-04T07:52:22;97997.34;;;3.60;59.10
41044;BME280;51680;49.806;18.774;2023-04-04T07:55:24;97992.75;;;3.70;58.36
41044;BME280;51680;49.806;18.774;2023-04-04T07:58:26;97999.03;;;3.92;58.26
41044;BME280;51680;49.806;18.774;2023-04-04T08:01:28;97987.25;;;4.12;57.17
41044;BME280;51680;49.806;18.774;2023-04-04T08:04:32;97982.25;;;4.06;57.19
41044;BME280;51680;49.806;18.774;2023-04-04T08:07:34;97988.03;;;3.85;57.09
41044;BME280;51680;49.806;18.774;2023-04-04T08:10:36;97989.81;;;3.83;57.11
41044;BME280;51680;49.806;18.774;2023-04-04T08:13:37;97979.75;;;3.74;57.01
41044;BME280;51680;49.806;18.774;2023-04-04T08:16:39;97986.16;;;3.90;57.09
41044;BME280;51680;49.806;18.774;2023-04-04T08:19:42;97980.03;;;3.94;56.87
41044;BME280;51680;49.806;18.774;2023-04-04T08:22:44;97978.69;;;4.10;56.57
41044;BME280;51680;49.806;18.774;2023-04-04T08:25:46;97985.91;;;4.28;56.42
41044;BME280;51680;49.806;18.774;2023-04-04T08:28:48;97982.16;;;4.38;55.59
41044;BME280;51680;49.806;18.774;2023-04-04T08:31:50;97971.00;;;4.64;55.74
41044;BME280;51680;49.806;18.774;2023-04-04T08:34:54;97959.03;;;4.87;54.53
41044;BME280;51680;49.806;18.774;2023-04-04T08:37:56;97960.03;;;5.58;53.72
41044;BME280;51680;49.806;18.774;2023-04-04T08:40:58;97952.34;;;5.81;53.33
41044;BME280;51680;49.806;18.774;2023-04-04T08:44:02;97945.97;;;5.90;52.38
41044;BME280;51680;49.806;18.774;2023-04-04T08:47:06;97940.88;;;6.33;50.84
41044;BME280;51680;49.806;18.774;2023-04-04T08:50:11;97942.03;;;6.03;51.58
41044;BME280;51680;49.806;18.774;2023-04-04T08:53:13;97938.81;;;6.19;50.54
41044;BME280;51680;49.806;18.774;2023-04-04T08:56:16;97938.81;;;6.41;50.70
41044;BME280;51680;49.806;18.774;2023-04-04T08:59:18;97940.91;;;6.31;49.82
41044;BME280;51680;49.806;18.774;2023-04-04T09:02:25;97939.03;;;5.90;49.94
41044;BME280;51680;49.806;18.774;2023-04-04T09:05:30;97933.91;;;5.64;50.15
41044;BME280;51680;49.806;18.774;2023-04-04T09:08:32;97933.22;;;5.36;46.10
41044;BME280;51680;49.806;18.774;2023-04-04T09:11:35;97936.31;;;5.46;50.39
41044;BME280;51680;49.806;18.774;2023-04-04T09:14:58;97930.41;;;5.42;50.07
41044;BME280;51680;49.806;18.774;2023-04-04T09:18:02;97939.81;;;5.45;49.88
41044;BME280;51680;49.806;18.774;2023-04-04T09:21:09;97942.09;;;5.29;48.71
41044;BME280;51680;49.806;18.774;2023-04-04T09:24:11;97927.25;;;5.34;49.98
41044;BME280;51680;49.806;18.774;2023-04-04T09:27:14;97932.06;;;5.45;49.78
41044;BME280;51680;49.806;18.774;2023-04-04T09:30:16;97936.78;;;5.57;49.57
41044;BME280;51680;49.806;18.774;2023-04-04T09:33:19;97938.63;;;5.53;48.30
41044;BME280;51680;49.806;18.774;2023-04-04T09:36:24;97943.03;;;5.51;48.41
41044;BME280;51680;49.806;18.774;2023-04-04T09:39:27;97944.59;;;5.55;49.54
41044;BME280;51680;49.806;18.774;2023-04-04T09:42:29;97933.63;;;5.49;48.11
41044;BME280;51680;49.806;18.774;2023-04-04T09:45:33;97938.41;;;5.36;48.10
41044;BME280;51680;49.806;18.774;2023-04-04T09:48:36;97931.41;;;5.38;48.15
41044;BME280;51680;49.806;18.774;2023-04-04T09:51:39;97931.81;;;5.75;47.46
41044;BME280;51680;49.806;18.774;2023-04-04T09:54:41;97924.91;;;5.99;46.65
41044;BME280;51680;49.806;18.774;2023-04-04T09:57:45;97918.41;;;6.10;45.69
41044;BME280;51680;49.806;18.774;2023-04-04T10:00:48;97906.47;;;6.06;46.18
41044;BME280;51680;49.806;18.774;2023-04-04T10:03:53;97916.63;;;6.34;45.97
41044;BME280;51680;49.806;18.774;2023-04-04T10:06:58;97915.66;;;6.36;45.29
41044;BME280;51680;49.806;18.774;2023-04-04T10:10:00;97907.97;;;6.56;45.37
41044;BME280;51680;49.806;18.774;2023-04-04T10:13:05;97913.25;;;6.53;45.02
41044;BME280;51680;49.806;18.774;2023-04-04T10:16:07;97915.44;;;6.42;45.44
41044;BME280;51680;49.806;18.774;2023-04-04T10:19:10;97919.38;;;6.08;44.66
41044;BME280;51680;49.806;18.774;2023-04-04T10:22:16;97917.41;;;5.91;45.44
41044;BME280;51680;49.806;18.774;2023-04-04T10:25:21;97911.47;;;5.89;45.48
41044;BME280;51680;49.806;18.774;2023-04-04T10:28:23;97916.53;;;6.14;46.52
41044;BME280;51680;49.806;18.774;2023-04-04T10:31:27;97911.63;;;6.29;45.43
41044;BME280;51680;49.806;18.774;2023-04-04T10:34:46;97904.19;;;6.20;43.78
41044;BME280;51680;49.806;18.774;2023-04-04T10:37:56;97901.81;;;6.59;44.55
41044;BME280;51680;49.806;18.774;2023-04-04T10:40:58;97885.81;;;6.89;45.67
41044;BME280;51680;49.806;18.774;2023-04-04T10:44:11;97883.91;;;7.14;44.03
41044;BME280;51680;49.806;18.774;2023-04-04T10:47:17;97890.88;;;7.32;45.48
41044;BME280;51680;49.806;18.774;2023-04-04T10:50:21;97881.88;;;7.21;44.98
41044;BME280;51680;49.806;18.774;2023-04-04T10:53:24;97888.34;;;6.91;44.02
41044;BME280;51680;49.806;18.774;2023-04-04T10:56:27;97888.91;;;6.77;45.32
41044;BME280;51680;49.806;18.774;2023-04-04T10:59:30;97876.03;;;6.96;45.35
41044;BME280;51680;49.806;18.774;2023-04-04T11:02:46;97880.00;;;7.04;43.87
41044;BME280;51680;49.806;18.774;2023-04-04T11:05:48;97885.19;;;7.04;45.00
41044;BME280;51680;49.806;18.774;2023-04-04T11:08:54;97886.28;;;6.99;44.98
41044;BME280;51680;49.806;18.774;2023-04-04T11:12:09;97888.91;;;6.77;43.82
41044;BME280;51680;49.806;18.774;2023-04-04T11:15:12;97897.50;;;6.58;45.44
41044;BME280;51680;49.806;18.774;2023-04-04T11:18:14;97895.03;;;6.55;45.99
41044;BME280;51680;49.806;18.774;2023-04-04T11:21:19;97893.56;;;6.69;45.64
41044;BME280;51680;49.806;18.774;2023-04-04T11:24:26;97892.16;;;6.62;44.95
41044;BME280;51680;49.806;18.774;2023-04-04T11:27:29;97888.25;;;6.52;46.20
41044;BME280;51680;49.806;18.774;2023-04-04T11:30:36;97902.53;;;6.41;45.49
41044;BME280;51680;49.806;18.774;2023-04-04T11:33:53;97899.56;;;6.28;44.82
41044;BME280;51680;49.806;18.774;2023-04-04T11:36:55;97896.06;;;6.29;46.00
41044;BME280;51680;49.806;18.774;2023-04-04T11:40:09;97887.44;;;6.29;44.21
41044;BME280;51680;49.806;18.774;2023-04-04T11:43:13;97874.38;;;6.10;46.64
41044;BME280;51680;49.806;18.774;2023-04-04T11:46:16;97885.06;;;6.01;47.48
41044;BME280;51680;49.806;18.774;2023-04-04T11:49:18;97889.59;;;5.96;46.98
41044;BME280;51680;49.806;18.774;2023-04-04T11:52:21;97880.56;;;5.83;46.80
41044;BME280;51680;49.806;18.774;2023-04-04T11:55:24;97886.66;;;5.82;46.33
41044;BME280;51680;49.806;18.774;2023-04-04T11:58:26;97886.66;;;5.82;46.36
41044;BME280;51680;49.806;18.774;2023-04-04T12:01:48;97884.84;;;6.07;47.04
41044;BME280;51680;49.806;18.774;2023-04-04T12:04:50;97886.63;;;6.28;46.50
41044;BME280;51680;49.806;18.774;2023-04-04T12:07:53;97881.47;;;6.48;46.24
41044;BME280;51680;49.806;18.774;2023-04-04T12:10:56;97883.97;;;6.51;45.63
41044;BME280;51680;49.806;18.774;2023-04-04T12:13:58;97884.09;;;6.68;45.81
41044;BME280;51680;49.806;18.774;2023-04-04T12:17:01;97873.41;;;6.76;45.28
41044;BME280;51680;49.806;18.774;2023-04-04T12:20:03;97875.00;;;6.58;45.59
41044;BME280;51680;49.806;18.774;2023-04-04T12:23:07;97889.88;;;6.33;45.62
41044;BME280;51680;49.806;18.774;2023-04-04T12:26:10;97893.06;;;6.18;45.40
41044;BME280;51680;49.806;18.774;2023-04-04T12:29:14;97899.38;;;6.11;46.43
41044;BME280;51680;49.806;18.774;2023-04-04T12:32:15;97891.94;;;6.02;45.40
41044;BME280;51680;49.806;18.774;2023-04-04T12:35:17;97894.78;;;6.18;47.11
41044;BME280;51680;49.806;18.774;2023-04-04T12:38:19;97901.81;;;6.37;46.57
41044;BME280;51680;49.806;18.774;2023-04-04T12:41:22;97892.97;;;6.63;46.42
41044;BME280;51680;49.806;18.774;2023-04-04T12:44:26;97887.09;;;6.79;45.83
41044;BME280;51680;49.806;18.774;2023-04-04T12:47:30;97889.84;;;6.76;45.81
41044;BME280;51680;49.806;18.774;2023-04-04T12:50:32;97899.44;;;6.53;46.27
41044;BME280;51680;49.806;18.774;2023-04-04T12:53:49;97900.75;;;6.41;45.40
41044;BME280;51680;49.806;18.774;2023-04-04T12:56:55;97902.84;;;6.33;46.81
41044;BME280;51680;49.806;18.774;2023-04-04T13:00:00;97898.16;;;6.41;46.44
41044;BME280;51680;49.806;18.774;2023-04-04T13:03:02;97886.00;;;6.43;46.88
41044;BME280;51680;49.806;18.774;2023-04-04T13:06:10;97881.22;;;6.54;46.59
41044;BME280;51680;49.806;18.774;2023-04-04T13:09:16;97875.78;;;6.60;46.15
41044;BME280;51680;49.806;18.774;2023-04-04T13:12:19;97885.81;;;6.48;46.44
41044;BME280;51680;49.806;18.774;2023-04-04T13:15:21;97890.03;;;6.29;46.50
41044;BME280;51680;49.806;18.774;2023-04-04T13:18:25;97889.72;;;6.15;47.27
41044;BME280;51680;49.806;18.774;2023-04-04T13:21:27;97902.06;;;5.87;47.14
41044;BME280;51680;49.806;18.774;2023-04-04T13:24:29;97883.94;;;5.87;47.97
41044;BME280;51680;49.806;18.774;2023-04-04T13:27:32;97879.69;;;5.84;47.57
41044;BME280;51680;49.806;18.774;2023-04-04T13:30:34;97877.88;;;5.86;47.66
41044;BME280;51680;49.806;18.774;2023-04-04T13:33:36;97884.16;;;6.02;48.08
41044;BME280;51680;49.806;18.774;2023-04-04T13:36:38;97877.19;;;6.04;47.73
41044;BME280;51680;49.806;18.774;2023-04-04T13:39:40;97874.16;;;5.93;48.23
41044;BME280;51680;49.806;18.774;2023-04-04T13:42:43;97885.47;;;5.91;48.09
41044;BME280;51680;49.806;18.774;2023-04-04T13:46:03;97886.78;;;5.79;47.51
41044;BME280;51680;49.806;18.774;2023-04-04T13:49:05;97872.69;;;5.86;48.19
41044;BME280;51680;49.806;18.774;2023-04-04T13:52:07;97878.59;;;5.90;48.52
41044;BME280;51680;49.806;18.774;2023-04-04T13:55:09;97879.56;;;5.87;48.37
41044;BME280;51680;49.806;18.774;2023-04-04T13:58:12;97869.44;;;5.81;48.54
41044;BME280;51680;49.806;18.774;2023-04-04T14:01:20;97862.59;;;5.80;48.47
41044;BME280;51680;49.806;18.774;2023-04-04T14:04:22;97853.09;;;5.79;48.06
41044;BME280;51680;49.806;18.774;2023-04-04T14:07:23;97849.69;;;5.77;48.13
41044;BME280;51680;49.806;18.774;2023-04-04T14:10:25;97856.81;;;5.72;48.32
41044;BME280;51680;49.806;18.774;2023-04-04T14:13:28;97863.22;;;5.62;47.74
41044;BME280;51680;49.806;18.774;2023-04-04T14:16:32;97855.56;;;5.59;48.10
41044;BME280;51680;49.806;18.774;2023-04-04T14:19:33;97856.38;;;5.61;48.15
41044;BME280;51680;49.806;18.774;2023-04-04T14:22:35;97859.16;;;5.55;47.70
41044;BME280;51680;49.806;18.774;2023-04-04T14:25:37;97862.69;;;5.53;47.90
41044;BME280;51680;49.806;18.774;2023-04-04T14:28:40;97846.78;;;5.63;47.39
41044;BME280;51680;49.806;18.774;2023-04-04T14:31:42;97857.13;;;5.63;47.37
41044;BME280;51680;49.806;18.774;2023-04-04T14:34:43;97863.41;;;5.58;46.84
41044;BME280;51680;49.806;18.774;2023-04-04T14:37:45;97866.91;;;5.55;47.19
41044;BME280;51680;49.806;18.774;2023-04-04T14:40:48;97856.31;;;5.40;47.45
41044;BME280;51680;49.806;18.774;2023-04-04T14:43:51;97868.03;;;5.25;47.53
41044;BME280;51680;49.806;18.774;2023-04-04T14:46:53;97864.25;;;5.11;47.86
41044;BME280;51680;49.806;18.774;2023-04-04T14:49:55;97868.84;;;5.03;48.01
41044;BME280;51680;49.806;18.774;2023-04-04T14:52:57;97864.94;;;4.91;47.87
41044;BME280;51680;49.806;18.774;2023-04-04T14:55:59;97865.84;;;4.90;47.98
41044;BME280;51680;49.806;18.774;2023-04-04T14:59:02;97873.31;;;4.98;47.53
41044;BME280;51680;49.806;18.774;2023-04-04T15:02:06;97872.47;;;4.97;47.89
41044;BME280;51680;49.806;18.774;2023-04-04T15:05:08;97871.75;;;4.94;47.53
41044;BME280;51680;49.806;18.774;2023-04-04T15:08:10;97868.38;;;4.92;47.51
41044;BME280;51680;49.806;18.774;2023-04-04T15:11:11;97870.19;;;4.88;47.47
41044;BME280;51680;49.806;18.774;2023-04-04T15:14:16;97867.94;;;4.79;47.93
41044;BME280;51680;49.806;18.774;2023-04-04T15:17:37;97871.88;;;4.65;47.84
41044;BME280;51680;49.806;18.774;2023-04-04T15:20:38;97862.53;;;4.61;48.13
41044;BME280;51680;49.806;18.774;2023-04-04T15:23:40;97870.44;;;4.56;47.60
41044;BME280;51680;49.806;18.774;2023-04-04T15:26:42;97877.25;;;4.59;47.84
41044;BME280;51680;49.806;18.774;2023-04-04T15:29:45;97880.88;;;4.53;47.90
41044;BME280;51680;49.806;18.774;2023-04-04T15:32:47;97873.38;;;4.46;47.66
41044;BME280;51680;49.806;18.774;2023-04-04T15:35:49;97874.41;;;4.40;47.80
41044;BME280;51680;49.806;18.774;2023-04-04T15:38:51;97879.88;;;4.31;47.71
41044;BME280;51680;49.806;18.774;2023-04-04T15:41:53;97884.28;;;4.28;47.63
41044;BME280;51680;49.806;18.774;2023-04-04T15:44:57;97881.81;;;4.25;47.52
41044;BME280;51680;49.806;18.774;2023-04-04T15:47:59;97897.88;;;4.07;47.41
41044;BME280;51680;49.806;18.774;2023-04-04T15:51:01;97908.22;;;4.05;48.03
41044;BME280;51680;49.806;18.774;2023-04-04T15:54:02;97910.03;;;4.03;48.00
41044;BME280;51680;49.806;18.774;2023-04-04T15:57:05;97903.19;;;4.02;48.15
41044;BME280;51680;49.806;18.774;2023-04-04T16:00:10;97908.28;;;4.04;47.62
41044;BME280;51680;49.806;18.774;2023-04-04T16:03:12;97910.94;;;4.02;47.81
41044;BME280;51680;49.806;18.774;2023-04-04T16:06:14;97915.47;;;3.94;47.73
41044;BME280;51680;49.806;18.774;2023-04-04T16:09:15;97914.03;;;3.84;47.87
41044;BME280;51680;49.806;18.774;2023-04-04T16:12:17;97908.25;;;3.76;47.68